Time,TemperatureF,DewpointF,PressureIn,WindDirection,WindDirectionDegrees,WindSpeedMPH,WindSpeedGustMPH,Humidity,HourlyPrecipIn,Conditions,Clouds,dailyrainin,SoftwareType,DateUTC
2013-05-17 00:00:00,65.0,38.8,29.79,SE,134,0.0,0.0,38,0.00,,,0.00,Wunderground v.1.15,2013-05-17 04:00:00,
2013-05-17 00:30:00,63.3,42.7,29.80,West,267,1.0,1.0,47,0.00,,,0.00,Wunderground v.1.15,2013-05-17 04:30:00,
2013-05-17 01:01:00,61.3,44.0,29.82,WSW,255,1.0,1.0,53,0.00,,,0.00,Wunderground v.1.15,2013-05-17 05:01:00,
2013-05-17 01:30:00,59.7,43.0,29.83,WSW,249,1.0,2.0,54,0.00,,,0.00,Wunderground v.1.15,2013-05-17 05:30:00,
2013-05-17 02:01:00,58.4,42.8,29.82,West,264,1.0,1.0,56,0.00,,,0.00,Wunderground v.1.15,2013-05-17 06:01:00,
2013-05-17 02:30:00,56.6,42.9,29.83,WSW,239,0.0,0.0,60,0.00,,,0.00,Wunderground v.1.15,2013-05-17 06:30:00,
2013-05-17 03:00:00,55.4,42.6,29.84,West,269,0.0,0.0,62,0.00,,,0.00,Wunderground v.1.15,2013-05-17 07:00:00,
2013-05-17 03:30:00,53.4,42.7,29.84,West,268,0.0,0.0,67,0.00,,,0.00,Wunderground v.1.15,2013-05-17 07:30:00,
2013-05-17 04:00:00,52.4,42.9,29.85,West,269,0.0,0.0,70,0.00,,,0.00,Wunderground v.1.15,2013-05-17 08:00:00,
2013-05-17 04:30:00,53.1,43.2,29.87,WSW,243,1.0,4.0,69,0.00,,,0.00,Wunderground v.1.15,2013-05-17 08:30:00,
2013-05-17 05:01:00,53.8,42.3,29.87,SW,232,3.0,4.0,65,0.00,,,0.00,Wunderground v.1.15,2013-05-17 09:01:00,
2013-05-17 05:30:00,53.7,41.8,29.89,West,261,3.0,6.0,64,0.00,,,0.00,Wunderground v.1.15,2013-05-17 09:30:00,
2013-05-17 06:01:00,53.3,42.2,29.91,West,270,2.0,2.0,66,0.00,,,0.00,Wunderground v.1.15,2013-05-17 10:01:00,
2013-05-17 06:30:00,53.2,42.1,29.93,West,259,2.0,2.0,66,0.00,,,0.00,Wunderground v.1.15,2013-05-17 10:30:00,
2013-05-17 07:00:00,53.8,42.3,29.95,West,267,3.0,3.0,65,0.00,,,0.00,Wunderground v.1.15,2013-05-17 11:00:00,
2013-05-17 07:30:00,54.7,41.9,29.96,SW,222,3.0,4.0,62,0.00,,,0.00,Wunderground v.1.15,2013-05-17 11:30:00,
2013-05-17 08:00:00,55.3,41.6,29.97,West,266,5.0,5.0,60,0.00,,,0.00,Wunderground v.1.15,2013-05-17 12:00:00,
2013-05-17 08:30:00,57.4,42.7,29.98,West,264,2.0,4.0,58,0.00,,,0.00,Wunderground v.1.15,2013-05-17 12:30:00,
2013-05-17 09:01:00,57.8,42.7,29.98,WSW,249,4.0,4.0,57,0.00,,,0.00,Wunderground v.1.15,2013-05-17 13:01:00,
2013-05-17 09:30:00,59.8,42.6,29.98,West,264,3.0,3.0,53,0.00,,,0.00,Wunderground v.1.15,2013-05-17 13:30:00,
2013-05-17 10:00:00,61.7,43.4,29.98,SW,232,3.0,3.0,51,0.00,,,0.00,Wunderground v.1.15,2013-05-17 14:00:00,
2013-05-17 10:30:00,64.4,44.8,29.99,SSW,195,2.0,2.0,49,0.00,,,0.00,Wunderground v.1.15,2013-05-17 14:30:00,
2013-05-17 11:00:00,65.3,44.5,30.01,West,267,3.0,3.0,47,0.00,,,0.00,Wunderground v.1.15,2013-05-17 15:00:00,
2013-05-17 11:30:00,66.8,43.0,30.01,WSW,240,2.0,2.0,42,0.00,,,0.00,Wunderground v.1.15,2013-05-17 15:30:00,
2013-05-17 12:00:00,66.6,45.2,30.01,WSW,248,2.0,2.0,46,0.00,,,0.00,Wunderground v.1.15,2013-05-17 16:00:00,
2013-05-17 12:30:00,65.8,43.9,30.01,WSW,246,4.0,8.0,45,0.00,,,0.00,Wunderground v.1.15,2013-05-17 16:30:00,
2013-05-17 13:01:00,65.5,43.6,30.01,West,281,4.0,4.0,45,0.00,,,0.00,Wunderground v.1.15,2013-05-17 17:01:00,
2013-05-17 13:30:00,67.4,44.7,30.02,NE,44,2.0,2.0,44,0.00,,,0.00,Wunderground v.1.15,2013-05-17 17:30:00,
2013-05-17 14:01:00,67.9,45.2,30.02,SW,226,3.0,3.0,44,0.00,,,0.00,Wunderground v.1.15,2013-05-17 18:01:00,
2013-05-17 14:30:00,68.0,42.8,30.03,WSW,239,5.0,5.0,40,0.00,,,0.00,Wunderground v.1.15,2013-05-17 18:30:00,
2013-05-17 15:00:00,70.0,44.6,30.03,WSW,242,3.0,3.0,40,0.00,,,0.00,Wunderground v.1.15,2013-05-17 19:00:00,
2013-05-17 15:30:00,70.2,44.1,30.03,SW,218,4.0,4.0,39,0.00,,,0.00,Wunderground v.1.15,2013-05-17 19:30:00,
2013-05-17 16:01:00,72.7,43.5,30.03,WSW,255,2.0,3.0,35,0.00,,,0.00,Wunderground v.1.15,2013-05-17 20:01:00,
2013-05-17 16:30:00,72.4,40.9,30.04,WSW,256,2.0,3.0,32,0.00,,,0.00,Wunderground v.1.15,2013-05-17 20:30:00,
2013-05-17 17:01:00,70.8,40.3,30.05,South,176,2.0,2.0,33,0.00,,,0.00,Wunderground v.1.15,2013-05-17 21:01:00,
2013-05-17 17:30:00,72.6,40.2,30.06,West,281,1.0,4.0,31,0.00,,,0.00,Wunderground v.1.15,2013-05-17 21:30:00,
2013-05-17 18:00:00,69.9,39.5,30.07,West,269,2.0,4.0,33,0.00,,,0.00,Wunderground v.1.15,2013-05-17 22:00:00,
2013-05-17 18:30:00,67.8,43.9,30.08,ESE,115,1.0,1.0,42,0.00,,,0.00,Wunderground v.1.15,2013-05-17 22:30:00,
2013-05-17 19:00:00,66.1,44.7,30.09,NW,322,1.0,1.0,46,0.00,,,0.00,Wunderground v.1.15,2013-05-17 23:00:00,
2013-05-17 19:30:00,62.4,45.0,30.11,NE,47,0.0,0.0,53,0.00,,,0.00,Wunderground v.1.15,2013-05-17 23:30:00,
2013-05-17 20:01:00,59.9,45.1,30.12,WNW,294,0.0,4.0,58,0.00,,,0.00,Wunderground v.1.15,2013-05-18 00:01:00,
2013-05-17 20:30:00,57.8,45.3,30.14,NW,314,0.0,1.0,63,0.00,,,0.00,Wunderground v.1.15,2013-05-18 00:30:00,
2013-05-17 21:01:00,56.7,45.5,30.16,NNW,342,0.0,0.0,66,0.00,,,0.00,Wunderground v.1.15,2013-05-18 01:01:00,
2013-05-17 21:30:00,55.6,45.2,30.17,NNW,342,0.0,0.0,68,0.00,,,0.00,Wunderground v.1.15,2013-05-18 01:30:00,
2013-05-17 22:00:00,54.3,45.1,30.18,NNW,342,0.0,0.0,71,0.00,,,0.00,Wunderground v.1.15,2013-05-18 02:00:00,
2013-05-17 22:30:00,53.3,45.6,30.19,NNW,342,0.0,0.0,75,0.00,,,0.00,Wunderground v.1.15,2013-05-18 02:30:00,
2013-05-17 23:00:00,53.4,46.0,30.19,NNW,343,0.0,0.0,76,0.00,,,0.00,Wunderground v.1.15,2013-05-18 03:00:00,
2013-05-17 23:30:00,53.3,45.6,30.19,NNW,328,0.0,0.0,75,0.00,,,0.00,Wunderground v.1.15,2013-05-18 03:30:00,